sensor_id;sensor_type;location;lat;lon;timestamp;P1;durP1;ratioP1;P2;durP2;ratioP2
18048;SDS011;9149;47.002;8.604;2023-08-06T00:01:43;6.05;;;2.67;;
18048;SDS011;9149;47.002;8.604;2023-08-06T00:04:10;3.03;;;2.35;;
18048;SDS011;9149;47.002;8.604;2023-08-06T00:06:38;4.28;;;2.40;;
18048;SDS011;9149;47.002;8.604;2023-08-06T00:09:05;3.65;;;2.20;;
18048;SDS011;9149;47.002;8.604;2023-08-06T00:11:52;3.60;;;2.10;;
18048;SDS011;9149;47.002;8.604;2023-08-06T00:14:20;6.13;;;2.50;;
18048;SDS011;9149;47.002;8.604;2023-08-06T00:16:48;4.53;;;2.63;;
18048;SDS011;9149;47.002;8.604;2023-08-06T00:19:15;4.35;;;2.53;;
18048;SDS011;9149;47.002;8.604;2023-08-06T00:21:43;5.40;;;2.40;;
18048;SDS011;9149;47.002;8.604;2023-08-06T00:24:11;5.43;;;2.67;;
18048;SDS011;9149;47.002;8.604;2023-08-06T00:26:58;6.57;;;2.63;;
18048;SDS011;9149;47.002;8.604;2023-08-06T00:29:26;5.32;;;2.72;;
18048;SDS011;9149;47.002;8.604;2023-08-06T00:34:40;4.40;;;2.67;;
18048;SDS011;9149;47.002;8.604;2023-08-06T00:37:08;4.32;;;2.30;;
18048;SDS011;9149;47.002;8.604;2023-08-06T00:39:35;4.38;;;2.60;;
18048;SDS011;9149;47.002;8.604;2023-08-06T00:42:05;3.60;;;2.42;;
18048;SDS011;9149;47.002;8.604;2023-08-06T00:44:33;4.32;;;2.33;;
18048;SDS011;9149;47.002;8.604;2023-08-06T00:47:00;4.63;;;2.53;;
18048;SDS011;9149;47.002;8.604;2023-08-06T00:49:28;6.20;;;2.53;;
18048;SDS011;9149;47.002;8.604;2023-08-06T00:51:59;3.67;;;2.28;;
18048;SDS011;9149;47.002;8.604;2023-08-06T00:54:27;3.85;;;2.38;;
18048;SDS011;9149;47.002;8.604;2023-08-06T00:59:43;5.13;;;2.47;;
18048;SDS011;9149;47.002;8.604;2023-08-06T01:05:13;3.97;;;2.65;;
18048;SDS011;9149;47.002;8.604;2023-08-06T01:07:43;4.93;;;2.35;;
18048;SDS011;9149;47.002;8.604;2023-08-06T01:10:19;7.32;;;2.50;;
18048;SDS011;9149;47.002;8.604;2023-08-06T01:12:48;4.50;;;2.50;;
18048;SDS011;9149;47.002;8.604;2023-08-06T01:15:20;4.68;;;2.30;;
18048;SDS011;9149;47.002;8.604;2023-08-06T01:17:49;4.43;;;2.42;;
18048;SDS011;9149;47.002;8.604;2023-08-06T01:20:17;4.25;;;2.47;;
18048;SDS011;9149;47.002;8.604;2023-08-06T01:22:46;5.00;;;2.47;;
18048;SDS011;9149;47.002;8.604;2023-08-06T01:25:15;5.05;;;2.58;;
18048;SDS011;9149;47.002;8.604;2023-08-06T01:27:44;4.60;;;2.22;;
18048;SDS011;9149;47.002;8.604;2023-08-06T01:30:13;3.22;;;2.08;;
18048;SDS011;9149;47.002;8.604;2023-08-06T01:32:44;5.32;;;2.42;;
18048;SDS011;9149;47.002;8.604;2023-08-06T01:35:14;3.10;;;2.00;;
18048;SDS011;9149;47.002;8.604;2023-08-06T01:37:42;2.30;;;1.85;;
18048;SDS011;9149;47.002;8.604;2023-08-06T01:40:12;4.13;;;1.92;;
18048;SDS011;9149;47.002;8.604;2023-08-06T01:42:40;4.78;;;2.20;;
18048;SDS011;9149;47.002;8.604;2023-08-06T01:45:08;3.85;;;1.98;;
18048;SDS011;9149;47.002;8.604;2023-08-06T01:47:35;3.00;;;2.05;;
18048;SDS011;9149;47.002;8.604;2023-08-06T01:50:03;3.42;;;1.92;;
18048;SDS011;9149;47.002;8.604;2023-08-06T01:52:31;2.85;;;1.80;;
18048;SDS011;9149;47.002;8.604;2023-08-06T01:54:59;4.43;;;2.13;;
18048;SDS011;9149;47.002;8.604;2023-08-06T01:57:28;4.13;;;2.28;;
18048;SDS011;9149;47.002;8.604;2023-08-06T01:59:57;2.95;;;1.92;;
18048;SDS011;9149;47.002;8.604;2023-08-06T02:02:25;2.47;;;1.58;;
18048;SDS011;9149;47.002;8.604;2023-08-06T02:04:52;2.92;;;2.00;;
18048;SDS011;9149;47.002;8.604;2023-08-06T02:07:20;3.33;;;1.70;;
18048;SDS011;9149;47.002;8.604;2023-08-06T02:09:48;2.78;;;1.80;;
18048;SDS011;9149;47.002;8.604;2023-08-06T02:12:15;2.42;;;1.60;;
18048;SDS011;9149;47.002;8.604;2023-08-06T02:14:44;2.97;;;1.52;;
18048;SDS011;9149;47.002;8.604;2023-08-06T02:17:12;4.30;;;1.85;;
18048;SDS011;9149;47.002;8.604;2023-08-06T02:19:39;4.38;;;1.90;;
18048;SDS011;9149;47.002;8.604;2023-08-06T02:22:07;2.20;;;1.63;;
18048;SDS011;9149;47.002;8.604;2023-08-06T02:24:35;2.28;;;1.60;;
18048;SDS011;9149;47.002;8.604;2023-08-06T02:27:02;4.05;;;2.10;;
18048;SDS011;9149;47.002;8.604;2023-08-06T02:29:30;2.83;;;1.63;;
18048;SDS011;9149;47.002;8.604;2023-08-06T02:31:59;2.40;;;1.40;;
18048;SDS011;9149;47.002;8.604;2023-08-06T02:34:28;2.10;;;1.50;;
18048;SDS011;9149;47.002;8.604;2023-08-06T02:36:56;2.65;;;1.70;;
18048;SDS011;9149;47.002;8.604;2023-08-06T02:39:24;2.55;;;1.77;;
18048;SDS011;9149;47.002;8.604;2023-08-06T02:41:52;6.68;;;1.77;;
18048;SDS011;9149;47.002;8.604;2023-08-06T02:44:20;1.75;;;1.38;;
18048;SDS011;9149;47.002;8.604;2023-08-06T02:46:48;3.13;;;1.60;;
18048;SDS011;9149;47.002;8.604;2023-08-06T02:49:17;4.03;;;1.95;;
18048;SDS011;9149;47.002;8.604;2023-08-06T02:51:45;3.10;;;1.73;;
18048;SDS011;9149;47.002;8.604;2023-08-06T02:54:13;3.67;;;1.48;;
18048;SDS011;9149;47.002;8.604;2023-08-06T02:56:42;2.88;;;1.70;;
18048;SDS011;9149;47.002;8.604;2023-08-06T02:59:16;1.83;;;1.50;;
18048;SDS011;9149;47.002;8.604;2023-08-06T03:01:51;3.08;;;1.52;;
18048;SDS011;9149;47.002;8.604;2023-08-06T03:04:28;3.17;;;1.80;;
18048;SDS011;9149;47.002;8.604;2023-08-06T03:06:56;5.95;;;1.55;;
18048;SDS011;9149;47.002;8.604;2023-08-06T03:09:30;5.97;;;1.90;;
18048;SDS011;9149;47.002;8.604;2023-08-06T03:11:58;3.20;;;2.00;;
18048;SDS011;9149;47.002;8.604;2023-08-06T03:14:26;5.60;;;1.70;;
18048;SDS011;9149;47.002;8.604;2023-08-06T03:16:54;2.80;;;1.55;;
18048;SDS011;9149;47.002;8.604;2023-08-06T03:19:22;2.10;;;1.55;;
18048;SDS011;9149;47.002;8.604;2023-08-06T03:21:51;2.00;;;1.52;;
18048;SDS011;9149;47.002;8.604;2023-08-06T03:24:20;3.33;;;1.60;;
18048;SDS011;9149;47.002;8.604;2023-08-06T03:26:48;2.47;;;1.65;;
18048;SDS011;9149;47.002;8.604;2023-08-06T03:29:16;2.42;;;1.73;;
18048;SDS011;9149;47.002;8.604;2023-08-06T03:31:44;3.03;;;1.70;;
18048;SDS011;9149;47.002;8.604;2023-08-06T03:34:14;3.50;;;1.60;;
18048;SDS011;9149;47.002;8.604;2023-08-06T03:36:42;2.70;;;1.25;;
18048;SDS011;9149;47.002;8.604;2023-08-06T03:39:11;1.92;;;1.58;;
18048;SDS011;9149;47.002;8.604;2023-08-06T03:41:41;2.20;;;1.35;;
18048;SDS011;9149;47.002;8.604;2023-08-06T03:44:08;2.40;;;1.40;;
18048;SDS011;9149;47.002;8.604;2023-08-06T03:46:36;2.95;;;1.73;;
18048;SDS011;9149;47.002;8.604;2023-08-06T03:49:06;3.05;;;1.67;;
18048;SDS011;9149;47.002;8.604;2023-08-06T03:51:33;4.72;;;1.50;;
18048;SDS011;9149;47.002;8.604;2023-08-06T03:54:01;1.45;;;1.02;;
18048;SDS011;9149;47.002;8.604;2023-08-06T03:56:30;3.90;;;1.83;;
18048;SDS011;9149;47.002;8.604;2023-08-06T03:58:58;2.28;;;1.50;;
18048;SDS011;9149;47.002;8.604;2023-08-06T04:01:26;1.55;;;1.30;;
18048;SDS011;9149;47.002;8.604;2023-08-06T04:03:54;2.63;;;1.40;;
18048;SDS011;9149;47.002;8.604;2023-08-06T04:06:22;1.80;;;1.33;;
18048;SDS011;9149;47.002;8.604;2023-08-06T04:08:51;1.95;;;1.40;;
18048;SDS011;9149;47.002;8.604;2023-08-06T04:11:19;3.05;;;1.40;;
18048;SDS011;9149;47.002;8.604;2023-08-06T04:13:48;1.83;;;1.15;;
18048;SDS011;9149;47.002;8.604;2023-08-06T04:16:16;1.63;;;1.30;;
18048;SDS011;9149;47.002;8.604;2023-08-06T04:18:44;3.15;;;1.40;;
18048;SDS011;9149;47.002;8.604;2023-08-06T04:21:12;2.10;;;1.42;;
18048;SDS011;9149;47.002;8.604;2023-08-06T04:23:40;1.80;;;1.20;;
18048;SDS011;9149;47.002;8.604;2023-08-06T04:26:08;2.05;;;1.30;;
18048;SDS011;9149;47.002;8.604;2023-08-06T04:28:37;1.60;;;1.25;;
18048;SDS011;9149;47.002;8.604;2023-08-06T04:31:06;3.85;;;1.40;;
18048;SDS011;9149;47.002;8.604;2023-08-06T04:33:34;2.10;;;1.40;;
18048;SDS011;9149;47.002;8.604;2023-08-06T04:36:07;1.80;;;1.40;;
18048;SDS011;9149;47.002;8.604;2023-08-06T04:38:34;1.90;;;1.20;;
18048;SDS011;9149;47.002;8.604;2023-08-06T04:41:02;3.20;;;1.65;;
18048;SDS011;9149;47.002;8.604;2023-08-06T04:43:30;1.85;;;1.20;;
18048;SDS011;9149;47.002;8.604;2023-08-06T04:45:58;2.20;;;1.38;;
18048;SDS011;9149;47.002;8.604;2023-08-06T04:48:27;3.53;;;1.58;;
18048;SDS011;9149;47.002;8.604;2023-08-06T04:50:55;4.00;;;1.30;;
18048;SDS011;9149;47.002;8.604;2023-08-06T04:53:22;3.95;;;1.40;;
18048;SDS011;9149;47.002;8.604;2023-08-06T04:55:49;3.58;;;1.40;;
18048;SDS011;9149;47.002;8.604;2023-08-06T04:58:16;1.92;;;1.27;;
18048;SDS011;9149;47.002;8.604;2023-08-06T05:00:44;1.50;;;1.20;;
18048;SDS011;9149;47.002;8.604;2023-08-06T05:03:12;2.63;;;1.65;;
18048;SDS011;9149;47.002;8.604;2023-08-06T05:05:41;2.72;;;1.40;;
18048;SDS011;9149;47.002;8.604;2023-08-06T05:08:13;1.98;;;1.40;;
18048;SDS011;9149;47.002;8.604;2023-08-06T05:10:42;2.13;;;1.30;;
18048;SDS011;9149;47.002;8.604;2023-08-06T05:13:09;2.90;;;1.42;;
18048;SDS011;9149;47.002;8.604;2023-08-06T05:15:37;2.75;;;1.45;;
18048;SDS011;9149;47.002;8.604;2023-08-06T05:18:06;1.95;;;1.23;;
18048;SDS011;9149;47.002;8.604;2023-08-06T05:20:35;3.47;;;1.42;;
18048;SDS011;9149;47.002;8.604;2023-08-06T05:23:04;2.88;;;1.35;;
18048;SDS011;9149;47.002;8.604;2023-08-06T05:25:33;1.70;;;1.33;;
18048;SDS011;9149;47.002;8.604;2023-08-06T05:28:01;1.33;;;1.20;;
18048;SDS011;9149;47.002;8.604;2023-08-06T05:30:29;4.63;;;1.30;;
18048;SDS011;9149;47.002;8.604;2023-08-06T05:32:57;1.42;;;1.10;;
18048;SDS011;9149;47.002;8.604;2023-08-06T05:35:25;2.53;;;1.40;;
18048;SDS011;9149;47.002;8.604;2023-08-06T05:37:52;2.35;;;1.33;;
18048;SDS011;9149;47.002;8.604;2023-08-06T05:40:21;1.92;;;1.40;;
18048;SDS011;9149;47.002;8.604;2023-08-06T05:42:51;9.02;;;1.52;;
18048;SDS011;9149;47.002;8.604;2023-08-06T05:45:18;3.30;;;1.30;;
18048;SDS011;9149;47.002;8.604;2023-08-06T05:47:47;4.05;;;1.30;;
18048;SDS011;9149;47.002;8.604;2023-08-06T05:50:15;1.95;;;1.30;;
18048;SDS011;9149;47.002;8.604;2023-08-06T05:52:43;2.72;;;1.40;;
18048;SDS011;9149;47.002;8.604;2023-08-06T05:55:11;2.47;;;1.38;;
18048;SDS011;9149;47.002;8.604;2023-08-06T05:57:40;2.33;;;1.20;;
18048;SDS011;9149;47.002;8.604;2023-08-06T06:00:08;1.55;;;0.90;;
18048;SDS011;9149;47.002;8.604;2023-08-06T06:02:39;2.03;;;1.00;;
18048;SDS011;9149;47.002;8.604;2023-08-06T06:05:07;1.17;;;0.80;;
18048;SDS011;9149;47.002;8.604;2023-08-06T06:07:35;2.58;;;0.93;;
18048;SDS011;9149;47.002;8.604;2023-08-06T06:10:03;4.10;;;0.90;;
18048;SDS011;9149;47.002;8.604;2023-08-06T06:12:30;2.38;;;0.70;;
18048;SDS011;9149;47.002;8.604;2023-08-06T06:14:59;1.00;;;0.60;;
18048;SDS011;9149;47.002;8.604;2023-08-06T06:17:28;1.67;;;0.70;;
18048;SDS011;9149;47.002;8.604;2023-08-06T06:19:56;2.20;;;1.17;;
18048;SDS011;9149;47.002;8.604;2023-08-06T06:22:24;1.55;;;1.20;;
18048;SDS011;9149;47.002;8.604;2023-08-06T06:24:51;2.17;;;1.35;;
18048;SDS011;9149;47.002;8.604;2023-08-06T06:27:19;0.90;;;0.82;;
18048;SDS011;9149;47.002;8.604;2023-08-06T06:29:47;4.45;;;1.17;;
18048;SDS011;9149;47.002;8.604;2023-08-06T06:32:16;1.83;;;0.70;;
18048;SDS011;9149;47.002;8.604;2023-08-06T06:34:43;1.60;;;0.82;;
18048;SDS011;9149;47.002;8.604;2023-08-06T06:37:11;1.65;;;0.70;;
18048;SDS011;9149;47.002;8.604;2023-08-06T06:39:38;0.95;;;0.80;;
18048;SDS011;9149;47.002;8.604;2023-08-06T06:42:06;2.38;;;1.10;;
18048;SDS011;9149;47.002;8.604;2023-08-06T06:44:41;0.90;;;0.80;;
18048;SDS011;9149;47.002;8.604;2023-08-06T06:47:09;1.45;;;0.95;;
18048;SDS011;9149;47.002;8.604;2023-08-06T06:49:38;2.03;;;0.80;;
18048;SDS011;9149;47.002;8.604;2023-08-06T06:52:06;1.20;;;0.80;;
18048;SDS011;9149;47.002;8.604;2023-08-06T06:54:33;1.92;;;0.70;;
18048;SDS011;9149;47.002;8.604;2023-08-06T06:57:01;1.85;;;0.80;;
18048;SDS011;9149;47.002;8.604;2023-08-06T06:59:29;1.33;;;0.80;;
18048;SDS011;9149;47.002;8.604;2023-08-06T07:01:56;1.65;;;0.75;;
18048;SDS011;9149;47.002;8.604;2023-08-06T07:04:24;2.85;;;0.73;;
18048;SDS011;9149;47.002;8.604;2023-08-06T07:06:53;3.20;;;0.70;;
18048;SDS011;9149;47.002;8.604;2023-08-06T07:09:20;2.60;;;0.70;;
18048;SDS011;9149;47.002;8.604;2023-08-06T07:11:48;4.60;;;0.80;;
18048;SDS011;9149;47.002;8.604;2023-08-06T07:14:16;1.45;;;0.77;;
18048;SDS011;9149;47.002;8.604;2023-08-06T07:16:44;2.85;;;0.60;;
18048;SDS011;9149;47.002;8.604;2023-08-06T07:19:11;0.88;;;0.80;;
18048;SDS011;9149;47.002;8.604;2023-08-06T07:21:39;1.85;;;0.77;;
18048;SDS011;9149;47.002;8.604;2023-08-06T07:24:08;3.08;;;0.60;;
18048;SDS011;9149;47.002;8.604;2023-08-06T07:26:36;5.60;;;1.10;;
18048;SDS011;9149;47.002;8.604;2023-08-06T07:29:03;3.60;;;0.70;;
18048;SDS011;9149;47.002;8.604;2023-08-06T07:31:31;4.80;;;1.08;;
18048;SDS011;9149;47.002;8.604;2023-08-06T07:33:59;3.75;;;0.60;;
18048;SDS011;9149;47.002;8.604;2023-08-06T07:36:27;1.63;;;0.80;;
18048;SDS011;9149;47.002;8.604;2023-08-06T07:38:54;1.27;;;0.70;;
18048;SDS011;9149;47.002;8.604;2023-08-06T07:41:24;1.33;;;0.75;;
18048;SDS011;9149;47.002;8.604;2023-08-06T07:43:52;0.50;;;0.50;;
18048;SDS011;9149;47.002;8.604;2023-08-06T07:46:20;1.15;;;0.63;;
18048;SDS011;9149;47.002;8.604;2023-08-06T07:48:47;3.00;;;0.82;;
18048;SDS011;9149;47.002;8.604;2023-08-06T07:51:15;2.17;;;0.85;;
18048;SDS011;9149;47.002;8.604;2023-08-06T07:53:43;0.70;;;0.60;;
18048;SDS011;9149;47.002;8.604;2023-08-06T07:56:10;2.58;;;0.77;;
18048;SDS011;9149;47.002;8.604;2023-08-06T07:58:39;1.80;;;0.70;;
18048;SDS011;9149;47.002;8.604;2023-08-06T08:01:07;2.25;;;0.90;;
18048;SDS011;9149;47.002;8.604;2023-08-06T08:03:36;3.47;;;0.80;;
18048;SDS011;9149;47.002;8.604;2023-08-06T08:06:03;4.22;;;0.90;;
18048;SDS011;9149;47.002;8.604;2023-08-06T08:08:31;3.08;;;0.80;;
18048;SDS011;9149;47.002;8.604;2023-08-06T08:10:58;2.05;;;0.70;;
18048;SDS011;9149;47.002;8.604;2023-08-06T08:13:27;1.60;;;0.65;;
18048;SDS011;9149;47.002;8.604;2023-08-06T08:15:57;0.95;;;0.80;;
18048;SDS011;9149;47.002;8.604;2023-08-06T08:18:25;1.83;;;0.80;;
18048;SDS011;9149;47.002;8.604;2023-08-06T08:20:53;3.08;;;0.93;;
18048;SDS011;9149;47.002;8.604;2023-08-06T08:23:21;5.32;;;0.80;;
18048;SDS011;9149;47.002;8.604;2023-08-06T08:25:48;1.10;;;0.80;;
18048;SDS011;9149;47.002;8.604;2023-08-06T08:28:16;1.83;;;0.90;;
18048;SDS011;9149;47.002;8.604;2023-08-06T08:30:44;1.38;;;0.82;;
18048;SDS011;9149;47.002;8.604;2023-08-06T08:33:13;2.63;;;0.93;;
18048;SDS011;9149;47.002;8.604;2023-08-06T08:35:40;3.08;;;0.90;;
18048;SDS011;9149;47.002;8.604;2023-08-06T08:38:08;2.10;;;0.98;;
18048;SDS011;9149;47.002;8.604;2023-08-06T08:40:36;1.85;;;0.90;;
18048;SDS011;9149;47.002;8.604;2023-08-06T08:43:08;2.33;;;0.95;;
18048;SDS011;9149;47.002;8.604;2023-08-06T08:45:36;0.75;;;0.73;;
18048;SDS011;9149;47.002;8.604;2023-08-06T08:48:06;2.05;;;0.90;;
18048;SDS011;9149;47.002;8.604;2023-08-06T08:50:35;4.03;;;0.90;;
18048;SDS011;9149;47.002;8.604;2023-08-06T08:53:03;2.55;;;0.70;;
18048;SDS011;9149;47.002;8.604;2023-08-06T08:55:31;1.38;;;1.00;;
18048;SDS011;9149;47.002;8.604;2023-08-06T08:57:59;0.85;;;0.70;;
18048;SDS011;9149;47.002;8.604;2023-08-06T09:00:27;1.80;;;1.00;;
18048;SDS011;9149;47.002;8.604;2023-08-06T09:02:55;2.25;;;0.90;;
18048;SDS011;9149;47.002;8.604;2023-08-06T09:05:23;2.60;;;0.70;;
18048;SDS011;9149;47.002;8.604;2023-08-06T09:07:52;1.48;;;0.80;;
18048;SDS011;9149;47.002;8.604;2023-08-06T09:10:20;2.65;;;0.80;;
18048;SDS011;9149;47.002;8.604;2023-08-06T09:12:49;1.00;;;0.70;;
18048;SDS011;9149;47.002;8.604;2023-08-06T09:15:18;3.20;;;0.90;;
18048;SDS011;9149;47.002;8.604;2023-08-06T09:17:48;0.60;;;0.60;;
18048;SDS011;9149;47.002;8.604;2023-08-06T09:20:16;6.13;;;0.73;;
18048;SDS011;9149;47.002;8.604;2023-08-06T09:22:44;2.25;;;0.70;;
18048;SDS011;9149;47.002;8.604;2023-08-06T09:25:30;1.60;;;0.57;;
18048;SDS011;9149;47.002;8.604;2023-08-06T09:27:58;5.20;;;0.60;;
18048;SDS011;9149;47.002;8.604;2023-08-06T09:30:29;2.35;;;0.95;;
18048;SDS011;9149;47.002;8.604;2023-08-06T09:32:57;1.38;;;0.82;;
18048;SDS011;9149;47.002;8.604;2023-08-06T09:35:27;2.63;;;0.70;;
18048;SDS011;9149;47.002;8.604;2023-08-06T09:37:55;1.10;;;0.68;;
18048;SDS011;9149;47.002;8.604;2023-08-06T09:40:24;0.80;;;0.63;;
18048;SDS011;9149;47.002;8.604;2023-08-06T09:42:53;1.42;;;0.80;;
18048;SDS011;9149;47.002;8.604;2023-08-06T09:45:21;2.65;;;0.90;;
18048;SDS011;9149;47.002;8.604;2023-08-06T09:47:49;0.73;;;0.70;;
18048;SDS011;9149;47.002;8.604;2023-08-06T09:50:17;1.23;;;0.95;;
18048;SDS011;9149;47.002;8.604;2023-08-06T09:52:46;2.55;;;0.82;;
18048;SDS011;9149;47.002;8.604;2023-08-06T09:55:14;2.95;;;0.98;;
18048;SDS011;9149;47.002;8.604;2023-08-06T09:57:42;0.88;;;0.70;;
18048;SDS011;9149;47.002;8.604;2023-08-06T10:00:11;3.15;;;0.88;;
18048;SDS011;9149;47.002;8.604;2023-08-06T10:02:40;4.22;;;0.73;;
18048;SDS011;9149;47.002;8.604;2023-08-06T10:05:08;1.00;;;0.50;;
18048;SDS011;9149;47.002;8.604;2023-08-06T10:07:36;4.25;;;0.80;;
18048;SDS011;9149;47.002;8.604;2023-08-06T10:10:05;0.68;;;0.68;;
18048;SDS011;9149;47.002;8.604;2023-08-06T10:12:34;1.38;;;0.70;;
18048;SDS011;9149;47.002;8.604;2023-08-06T10:15:03;2.97;;;0.68;;
18048;SDS011;9149;47.002;8.604;2023-08-06T10:17:33;1.17;;;0.60;;
18048;SDS011;9149;47.002;8.604;2023-08-06T10:20:16;1.45;;;0.70;;
18048;SDS011;9149;47.002;8.604;2023-08-06T10:22:45;0.80;;;0.70;;
18048;SDS011;9149;47.002;8.604;2023-08-06T10:25:16;0.77;;;0.63;;
18048;SDS011;9149;47.002;8.604;2023-08-06T10:27:53;2.78;;;0.55;;
18048;SDS011;9149;47.002;8.604;2023-08-06T10:30:21;0.65;;;0.65;;
18048;SDS011;9149;47.002;8.604;2023-08-06T10:32:51;3.20;;;0.70;;
18048;SDS011;9149;47.002;8.604;2023-08-06T10:37:58;1.23;;;0.57;;
18048;SDS011;9149;47.002;8.604;2023-08-06T10:40:26;0.75;;;0.50;;
18048;SDS011;9149;47.002;8.604;2023-08-06T10:42:55;0.50;;;0.40;;
18048;SDS011;9149;47.002;8.604;2023-08-06T10:45:25;0.60;;;0.52;;
18048;SDS011;9149;47.002;8.604;2023-08-06T10:47:56;1.42;;;0.50;;
18048;SDS011;9149;47.002;8.604;2023-08-06T10:50:24;1.38;;;0.60;;
18048;SDS011;9149;47.002;8.604;2023-08-06T10:52:53;0.40;;;0.40;;
18048;SDS011;9149;47.002;8.604;2023-08-06T10:55:22;3.40;;;0.50;;
18048;SDS011;9149;47.002;8.604;2023-08-06T10:57:50;1.05;;;0.65;;
18048;SDS011;9149;47.002;8.604;2023-08-06T11:00:18;0.50;;;0.50;;
18048;SDS011;9149;47.002;8.604;2023-08-06T11:02:46;0.50;;;0.50;;
18048;SDS011;9149;47.002;8.604;2023-08-06T11:05:16;0.85;;;0.40;;
18048;SDS011;9149;47.002;8.604;2023-08-06T11:07:43;0.47;;;0.40;;
18048;SDS011;9149;47.002;8.604;2023-08-06T11:10:12;0.40;;;0.40;;
18048;SDS011;9149;47.002;8.604;2023-08-06T11:12:39;0.40;;;0.40;;
18048;SDS011;9149;47.002;8.604;2023-08-06T11:15:07;0.63;;;0.50;;
18048;SDS011;9149;47.002;8.604;2023-08-06T11:17:35;2.08;;;1.00;;
18048;SDS011;9149;47.002;8.604;2023-08-06T11:20:03;1.13;;;0.70;;
18048;SDS011;9149;47.002;8.604;2023-08-06T11:22:33;0.70;;;0.63;;
18048;SDS011;9149;47.002;8.604;2023-08-06T11:25:00;0.70;;;0.60;;
18048;SDS011;9149;47.002;8.604;2023-08-06T11:27:29;0.95;;;0.50;;
18048;SDS011;9149;47.002;8.604;2023-08-06T11:29:57;0.50;;;0.50;;
18048;SDS011;9149;47.002;8.604;2023-08-06T11:32:24;0.47;;;0.43;;
18048;SDS011;9149;47.002;8.604;2023-08-06T11:34:53;1.85;;;0.60;;
18048;SDS011;9149;47.002;8.604;2023-08-06T11:37:23;0.57;;;0.57;;
18048;SDS011;9149;47.002;8.604;2023-08-06T11:39:53;0.47;;;0.47;;
18048;SDS011;9149;47.002;8.604;2023-08-06T11:42:22;0.60;;;0.60;;
18048;SDS011;9149;47.002;8.604;2023-08-06T11:44:50;0.50;;;0.50;;
18048;SDS011;9149;47.002;8.604;2023-08-06T11:47:17;0.60;;;0.50;;
18048;SDS011;9149;47.002;8.604;2023-08-06T11:49:46;0.50;;;0.50;;
18048;SDS011;9149;47.002;8.604;2023-08-06T11:52:15;0.45;;;0.40;;
18048;SDS011;9149;47.002;8.604;2023-08-06T11:54:45;0.43;;;0.43;;
18048;SDS011;9149;47.002;8.604;2023-08-06T11:57:14;2.42;;;0.50;;
18048;SDS011;9149;47.002;8.604;2023-08-06T11:59:44;0.60;;;0.57;;
18048;SDS011;9149;47.002;8.604;2023-08-06T12:02:12;0.60;;;0.52;;
18048;SDS011;9149;47.002;8.604;2023-08-06T12:07:18;2.08;;;0.63;;
18048;SDS011;9149;47.002;8.604;2023-08-06T12:09:46;0.63;;;0.50;;
18048;SDS011;9149;47.002;8.604;2023-08-06T12:12:15;0.50;;;0.50;;
18048;SDS011;9149;47.002;8.604;2023-08-06T12:14:42;0.50;;;0.50;;
18048;SDS011;9149;47.002;8.604;2023-08-06T12:17:10;0.40;;;0.40;;
18048;SDS011;9149;47.002;8.604;2023-08-06T12:19:37;0.40;;;0.40;;
18048;SDS011;9149;47.002;8.604;2023-08-06T12:22:05;0.50;;;0.50;;
18048;SDS011;9149;47.002;8.604;2023-08-06T12:24:33;0.93;;;0.47;;
18048;SDS011;9149;47.002;8.604;2023-08-06T12:27:00;0.40;;;0.40;;
18048;SDS011;9149;47.002;8.604;2023-08-06T12:29:30;0.38;;;0.38;;
18048;SDS011;9149;47.002;8.604;2023-08-06T12:31:58;0.40;;;0.40;;
18048;SDS011;9149;47.002;8.604;2023-08-06T12:34:26;0.47;;;0.47;;
18048;SDS011;9149;47.002;8.604;2023-08-06T12:37:02;0.40;;;0.40;;
18048;SDS011;9149;47.002;8.604;2023-08-06T12:39:29;0.32;;;0.32;;
18048;SDS011;9149;47.002;8.604;2023-08-06T12:44:45;0.50;;;0.50;;
18048;SDS011;9149;47.002;8.604;2023-08-06T12:47:13;0.55;;;0.50;;
18048;SDS011;9149;47.002;8.604;2023-08-06T12:49:40;1.85;;;0.50;;
18048;SDS011;9149;47.002;8.604;2023-08-06T12:52:08;0.40;;;0.40;;
18048;SDS011;9149;47.002;8.604;2023-08-06T12:54:36;0.40;;;0.40;;
18048;SDS011;9149;47.002;8.604;2023-08-06T12:57:04;0.40;;;0.40;;
18048;SDS011;9149;47.002;8.604;2023-08-06T12:59:32;1.38;;;0.50;;
18048;SDS011;9149;47.002;8.604;2023-08-06T13:02:01;0.80;;;0.55;;
18048;SDS011;9149;47.002;8.604;2023-08-06T13:04:29;0.50;;;0.50;;
18048;SDS011;9149;47.002;8.604;2023-08-06T13:06:57;0.40;;;0.40;;
18048;SDS011;9149;47.002;8.604;2023-08-06T13:09:25;0.45;;;0.45;;
18048;SDS011;9149;47.002;8.604;2023-08-06T13:11:56;0.40;;;0.40;;
18048;SDS011;9149;47.002;8.604;2023-08-06T13:14:24;0.73;;;0.60;;
18048;SDS011;9149;47.002;8.604;2023-08-06T13:16:51;0.57;;;0.47;;
18048;SDS011;9149;47.002;8.604;2023-08-06T13:19:39;0.40;;;0.40;;
18048;SDS011;9149;47.002;8.604;2023-08-06T13:22:07;0.88;;;0.50;;
18048;SDS011;9149;47.002;8.604;2023-08-06T13:24:35;0.80;;;0.50;;
18048;SDS011;9149;47.002;8.604;2023-08-06T13:27:03;1.75;;;0.50;;
18048;SDS011;9149;47.002;8.604;2023-08-06T13:29:30;0.40;;;0.40;;
18048;SDS011;9149;47.002;8.604;2023-08-06T13:31:58;0.40;;;0.40;;
18048;SDS011;9149;47.002;8.604;2023-08-06T13:34:46;0.55;;;0.50;;
18048;SDS011;9149;47.002;8.604;2023-08-06T13:37:13;0.50;;;0.50;;
18048;SDS011;9149;47.002;8.604;2023-08-06T13:39:41;3.10;;;0.57;;
18048;SDS011;9149;47.002;8.604;2023-08-06T13:42:09;1.20;;;0.60;;
18048;SDS011;9149;47.002;8.604;2023-08-06T13:44:36;1.40;;;0.60;;
18048;SDS011;9149;47.002;8.604;2023-08-06T13:47:04;0.47;;;0.47;;
18048;SDS011;9149;47.002;8.604;2023-08-06T13:49:32;1.20;;;0.52;;
18048;SDS011;9149;47.002;8.604;2023-08-06T13:52:01;0.80;;;0.57;;
18048;SDS011;9149;47.002;8.604;2023-08-06T13:54:47;0.50;;;0.50;;
18048;SDS011;9149;47.002;8.604;2023-08-06T13:57:15;0.60;;;0.60;;
18048;SDS011;9149;47.002;8.604;2023-08-06T13:59:43;0.50;;;0.50;;
18048;SDS011;9149;47.002;8.604;2023-08-06T14:02:11;0.50;;;0.50;;
18048;SDS011;9149;47.002;8.604;2023-08-06T14:04:39;0.50;;;0.50;;
18048;SDS011;9149;47.002;8.604;2023-08-06T14:07:08;0.75;;;0.50;;
18048;SDS011;9149;47.002;8.604;2023-08-06T14:09:36;0.50;;;0.50;;
18048;SDS011;9149;47.002;8.604;2023-08-06T14:12:03;0.60;;;0.60;;
18048;SDS011;9149;47.002;8.604;2023-08-06T14:14:31;0.93;;;0.50;;
18048;SDS011;9149;47.002;8.604;2023-08-06T14:17:00;0.60;;;0.60;;
18048;SDS011;9149;47.002;8.604;2023-08-06T14:19:47;0.50;;;0.50;;
18048;SDS011;9149;47.002;8.604;2023-08-06T14:22:16;9.07;;;0.60;;
18048;SDS011;9149;47.002;8.604;2023-08-06T14:24:44;0.60;;;0.60;;
18048;SDS011;9149;47.002;8.604;2023-08-06T14:27:13;4.22;;;0.60;;
18048;SDS011;9149;47.002;8.604;2023-08-06T14:29:41;1.77;;;0.50;;
18048;SDS011;9149;47.002;8.604;2023-08-06T14:32:08;0.60;;;0.60;;
18048;SDS011;9149;47.002;8.604;2023-08-06T14:34:36;0.80;;;0.70;;
18048;SDS011;9149;47.002;8.604;2023-08-06T14:37:04;0.50;;;0.50;;
18048;SDS011;9149;47.002;8.604;2023-08-06T14:39:33;0.60;;;0.60;;
18048;SDS011;9149;47.002;8.604;2023-08-06T14:42:01;0.85;;;0.60;;
18048;SDS011;9149;47.002;8.604;2023-08-06T14:44:28;0.95;;;0.68;;
18048;SDS011;9149;47.002;8.604;2023-08-06T14:46:56;0.52;;;0.50;;
18048;SDS011;9149;47.002;8.604;2023-08-06T14:49:24;0.60;;;0.60;;
18048;SDS011;9149;47.002;8.604;2023-08-06T14:51:52;0.50;;;0.50;;
18048;SDS011;9149;47.002;8.604;2023-08-06T14:54:19;0.50;;;0.50;;
18048;SDS011;9149;47.002;8.604;2023-08-06T14:56:48;0.55;;;0.55;;
18048;SDS011;9149;47.002;8.604;2023-08-06T14:59:16;1.25;;;0.70;;
18048;SDS011;9149;47.002;8.604;2023-08-06T15:01:43;1.77;;;0.80;;
18048;SDS011;9149;47.002;8.604;2023-08-06T15:04:11;0.63;;;0.60;;
18048;SDS011;9149;47.002;8.604;2023-08-06T15:06:39;0.80;;;0.77;;
18048;SDS011;9149;47.002;8.604;2023-08-06T15:09:07;0.52;;;0.52;;
18048;SDS011;9149;47.002;8.604;2023-08-06T15:11:34;0.60;;;0.60;;
18048;SDS011;9149;47.002;8.604;2023-08-06T15:14:03;0.70;;;0.70;;
18048;SDS011;9149;47.002;8.604;2023-08-06T15:16:33;0.70;;;0.70;;
18048;SDS011;9149;47.002;8.604;2023-08-06T15:19:01;0.90;;;0.80;;
18048;SDS011;9149;47.002;8.604;2023-08-06T15:21:29;0.80;;;0.60;;
18048;SDS011;9149;47.002;8.604;2023-08-06T15:23:57;0.47;;;0.47;;
18048;SDS011;9149;47.002;8.604;2023-08-06T15:26:24;0.73;;;0.73;;